Time;durP1;ratioP1;P1;durP2;ratioP2;P2;SDS_P1;SDS_P2;PMS_P1;PMS_P2;Temp;Humidity;BMP_temperature;BMP_pressure;BME280_temperature;BME280_humidity;BME280_pressure;Samples;Min_cycle;Max_cycle;Signal;HPM_P1;HPM_P2
2022/01/01 00:38:37;;;;;;;5.00;4.60;;;11.30;99.90;;;;;;7405898;19;20343;-91
2022/01/01 02:18:18;;;;;;;4.85;4.43;;;11.10;99.90;;;;;;7323378;19;20343;-92
2022/01/01 02:20:51;;;;;;;4.78;4.28;;;11.10;99.90;;;;;;7400642;19;20325;-92
2022/01/01 02:23:18;;;;;;;4.82;4.32;;;11.20;99.90;;;;;;7424995;19;20281;-92
2022/01/01 02:25:44;;;;;;;6.65;4.80;;;11.20;99.90;;;;;;7405072;19;20353;-93
2022/01/01 02:31:02;;;;;;;5.13;4.25;;;11.20;99.90;;;;;;7427292;19;20344;-93
2022/01/01 02:33:32;;;;;;;6.32;4.50;;;11.10;99.90;;;;;;7399382;19;20387;-92
2022/01/01 02:35:59;;;;;;;5.57;5.07;;;11.10;99.90;;;;;;7400904;19;20337;-92
2022/01/01 02:38:25;;;;;;;4.93;4.53;;;11.20;99.90;;;;;;7402854;19;20364;-90
2022/01/01 02:40:53;;;;;;;7.95;4.95;;;11.20;99.90;;;;;;7400170;19;20339;-92
2022/01/01 02:43:21;;;;;;;5.47;4.57;;;11.20;99.90;;;;;;7404127;19;20300;-90
2022/01/01 02:45:51;;;;;;;5.18;4.68;;;11.20;99.90;;;;;;7424528;19;20309;-91
2022/01/01 02:48:23;;;;;;;4.47;4.07;;;11.20;99.90;;;;;;7419753;19;20348;-94
2022/01/01 02:50:55;;;;;;;5.75;4.72;;;11.10;99.90;;;;;;7422532;19;20325;-92
2022/01/01 02:53:30;;;;;;;4.88;4.47;;;11.20;99.90;;;;;;7399958;19;20337;-92
2022/01/01 02:55:59;;;;;;;4.90;4.20;;;11.20;99.90;;;;;;7386472;19;20313;-91
2022/01/01 02:58:28;;;;;;;5.55;4.80;;;11.20;99.90;;;;;;7381525;19;20296;-93
2022/01/01 03:03:55;;;;;;;5.20;4.70;;;11.20;99.90;;;;;;7398814;19;20365;-90
2022/01/01 03:06:26;;;;;;;5.18;4.68;;;11.20;99.90;;;;;;7411124;19;20949;-92
2022/01/01 03:09:10;;;;;;;5.90;4.50;;;11.20;99.90;;;;;;7255376;19;2026490;-93
2022/01/01 03:11:39;;;;;;;6.53;4.93;;;11.20;99.90;;;;;;7290903;19;2003945;-89
2022/01/01 03:14:17;;;;;;;5.43;4.93;;;11.20;99.90;;;;;;7399515;19;20308;-92
2022/01/01 03:16:45;;;;;;;6.30;5.45;;;11.40;99.90;;;;;;7394004;19;20292;-93
2022/01/01 03:19:16;;;;;;;5.72;5.13;;;11.30;99.90;;;;;;7398279;19;20320;-91
2022/01/01 03:21:46;;;;;;;6.00;4.85;;;11.30;99.90;;;;;;7419485;19;20343;-90
2022/01/01 03:27:12;;;;;;;5.53;5.03;;;11.30;99.90;;;;;;7394295;19;20348;-91
2022/01/01 03:29:40;;;;;;;6.40;5.13;;;11.30;99.90;;;;;;7396775;19;20313;-93
2022/01/01 03:32:06;;;;;;;6.15;5.55;;;11.30;99.90;;;;;;7401502;19;20339;-91
2022/01/01 03:34:33;;;;;;;5.45;4.95;;;11.30;99.90;;;;;;7380250;19;20338;-93
2022/01/01 03:37:02;;;;;;;5.68;5.00;;;11.30;99.90;;;;;;7405927;19;20376;-91
2022/01/01 03:39:31;;;;;;;6.97;5.20;;;11.10;99.90;;;;;;7410827;19;20343;-90
2022/01/01 03:42:05;;;;;;;5.78;5.22;;;11.20;99.90;;;;;;7398700;19;20293;-91
2022/01/01 03:44:35;;;;;;;5.60;4.85;;;11.20;99.90;;;;;;7416297;19;20313;-91
2022/01/01 03:47:09;;;;;;;5.38;4.88;;;11.30;99.90;;;;;;7420481;19;20741;-92
2022/01/01 03:49:38;;;;;;;6.88;5.55;;;11.20;99.90;;;;;;7421962;19;20336;-87
2022/01/01 03:52:09;;;;;;;5.43;4.80;;;11.30;99.90;;;;;;7421129;19;20336;-91
2022/01/01 03:54:37;;;;;;;6.18;5.53;;;11.30;99.90;;;;;;7386679;19;20349;-91
2022/01/01 03:57:08;;;;;;;5.80;5.20;;;11.30;99.90;;;;;;7358106;19;20345;-92
2022/01/01 03:59:34;;;;;;;6.07;5.43;;;11.30;99.90;;;;;;7395736;19;20361;-92
2022/01/01 04:02:03;;;;;;;7.55;4.70;;;11.30;99.90;;;;;;7418309;19;20328;-91
2022/01/01 04:04:29;;;;;;;5.65;5.05;;;11.30;99.90;;;;;;7378973;19;20325;-93
2022/01/01 04:07:04;;;;;;;5.53;4.75;;;11.30;99.90;;;;;;7392721;19;20315;-93
2022/01/01 04:09:32;;;;;;;5.47;4.93;;;11.30;99.90;;;;;;7367693;19;20336;-91
2022/01/01 04:12:03;;;;;;;5.10;4.60;;;11.40;99.90;;;;;;7420715;19;20315;-91
2022/01/01 04:14:41;;;;;;;5.63;5.07;;;11.40;99.90;;;;;;7411148;19;20383;-92
2022/01/01 04:17:13;;;;;;;5.43;4.93;;;11.30;99.90;;;;;;7317769;19;2004287;-93
2022/01/01 04:19:41;;;;;;;5.03;4.60;;;11.50;99.90;;;;;;7419017;19;20342;-90
2022/01/01 04:22:09;;;;;;;5.65;5.10;;;11.30;99.90;;;;;;7410919;19;20321;-91
2022/01/01 04:24:39;;;;;;;5.40;4.90;;;11.40;99.90;;;;;;7397880;19;20313;-92
2022/01/01 04:27:06;;;;;;;5.72;4.60;;;11.40;99.90;;;;;;7414089;19;20288;-92
2022/01/01 04:29:35;;;;;;;6.65;4.88;;;11.40;99.90;;;;;;7352532;19;20345;-93
2022/01/01 04:32:04;;;;;;;6.35;4.82;;;11.40;99.90;;;;;;7417419;19;20336;-91
2022/01/01 04:34:31;;;;;;;5.63;4.90;;;11.40;99.90;;;;;;7399949;19;20333;-92
2022/01/01 04:37:12;;;;;;;5.32;4.82;;;11.40;99.90;;;;;;7396900;19;20460;-92
2022/01/01 04:39:52;;;;;;;6.40;5.45;;;11.40;99.90;;;;;;7394266;19;20390;-91
2022/01/01 04:42:23;;;;;;;5.80;5.10;;;11.40;99.90;;;;;;7315593;19;2004005;-91
2022/01/01 04:44:52;;;;;;;5.13;4.63;;;11.40;99.90;;;;;;7396228;19;20357;-91
2022/01/01 04:47:18;;;;;;;7.00;5.22;;;11.40;99.90;;;;;;7399991;19;20337;-94
2022/01/01 04:49:51;;;;;;;5.75;5.15;;;11.30;99.90;;;;;;7402024;19;20337;-92
2022/01/01 04:52:23;;;;;;;6.30;4.40;;;11.30;99.90;;;;;;7255965;19;2004269;-92
2022/01/01 04:54:50;;;;;;;6.10;4.53;;;11.30;99.90;;;;;;7369098;19;20375;-93
2022/01/01 04:57:16;;;;;;;5.00;4.35;;;11.50;99.90;;;;;;7418639;19;20332;-93
2022/01/01 04:59:42;;;;;;;5.07;4.63;;;11.30;99.90;;;;;;7411392;19;20305;-92
2022/01/01 05:02:13;;;;;;;5.03;4.40;;;11.30;99.90;;;;;;7420206;19;20328;-92
2022/01/01 05:04:40;;;;;;;5.05;4.32;;;11.30;99.90;;;;;;7417505;19;20333;-91
2022/01/01 05:07:08;;;;;;;8.10;4.60;;;11.30;99.90;;;;;;7399440;19;20317;-93
2022/01/01 05:09:33;;;;;;;6.97;4.13;;;11.30;99.90;;;;;;7419432;19;20297;-92
2022/01/01 05:11:59;;;;;;;6.03;4.72;;;11.30;99.90;;;;;;7376141;19;20329;-92
2022/01/01 05:14:25;;;;;;;4.30;3.90;;;11.40;99.90;;;;;;7395860;19;20325;-92
2022/01/01 05:16:52;;;;;;;4.90;4.20;;;11.40;99.90;;;;;;7419539;19;20378;-91
2022/01/01 05:19:19;;;;;;;4.63;4.18;;;11.40;99.90;;;;;;7418975;19;20331;-94
2022/01/01 05:21:48;;;;;;;6.75;4.25;;;11.30;99.90;;;;;;7351182;19;20351;-91
2022/01/01 05:24:18;;;;;;;6.80;4.57;;;11.40;99.90;;;;;;7280319;19;20337;-92
2022/01/01 05:26:47;;;;;;;4.93;4.22;;;11.40;99.90;;;;;;7381544;19;20330;-89
2022/01/01 05:29:13;;;;;;;4.97;4.07;;;11.40;99.90;;;;;;7406578;19;20352;-93
2022/01/01 05:31:39;;;;;;;4.55;4.10;;;11.50;99.90;;;;;;7403970;19;20332;-94
2022/01/01 05:34:05;;;;;;;4.00;3.65;;;11.30;99.90;;;;;;7417332;19;20329;-92
2022/01/01 05:36:34;;;;;;;6.57;4.13;;;11.30;99.90;;;;;;7426980;19;20332;-91
2022/01/01 05:39:02;;;;;;;5.00;3.97;;;11.40;99.90;;;;;;7418109;19;20324;-91
2022/01/01 05:41:29;;;;;;;5.55;4.25;;;11.50;99.90;;;;;;7382201;19;20321;-92
2022/01/01 05:43:58;;;;;;;6.80;4.30;;;11.40;99.90;;;;;;7423862;19;20340;-90
2022/01/01 05:46:25;;;;;;;5.97;4.30;;;11.40;99.90;;;;;;7393280;19;20333;-92
2022/01/01 05:48:52;;;;;;;5.68;4.30;;;11.40;99.90;;;;;;7428340;19;20289;-91
2022/01/01 05:51:18;;;;;;;5.35;4.38;;;11.30;99.90;;;;;;7426297;19;20324;-91
2022/01/01 05:53:43;;;;;;;4.78;4.22;;;11.30;99.90;;;;;;7421869;19;20308;-92
2022/01/01 05:56:10;;;;;;;5.37;4.20;;;11.30;99.90;;;;;;7417317;19;20331;-92
2022/01/01 05:58:38;;;;;;;4.57;4.18;;;11.30;99.90;;;;;;7402242;19;20344;-92
2022/01/01 06:01:05;;;;;;;4.50;4.10;;;11.30;99.90;;;;;;7425885;19;20281;-92
2022/01/01 06:03:31;;;;;;;4.37;3.97;;;11.30;99.90;;;;;;7415782;19;20336;-91
2022/01/01 06:05:59;;;;;;;5.07;3.92;;;11.30;99.90;;;;;;7422636;19;20333;-94
2022/01/01 06:08:28;;;;;;;6.80;4.43;;;11.40;99.90;;;;;;7423336;19;20319;-93
2022/01/01 06:10:54;;;;;;;5.45;3.60;;;11.40;99.90;;;;;;7421801;19;20332;-93
2022/01/01 06:13:20;;;;;;;4.78;3.72;;;11.40;99.90;;;;;;7402518;19;20321;-92
2022/01/01 06:15:48;;;;;;;5.63;4.00;;;11.30;99.90;;;;;;7424352;19;20356;-91
2022/01/01 06:18:14;;;;;;;5.20;3.92;;;11.30;99.90;;;;;;7422233;19;20340;-91
2022/01/01 06:20:42;;;;;;;4.32;3.90;;;11.30;99.90;;;;;;7422925;19;20678;-90
2022/01/01 06:23:07;;;;;;;3.58;3.20;;;11.40;99.90;;;;;;7418313;19;20313;-92
2022/01/01 06:25:35;;;;;;;4.65;3.30;;;11.30;99.90;;;;;;7420258;19;20361;-93
2022/01/01 06:28:04;;;;;;;4.20;3.75;;;11.30;99.90;;;;;;7421902;19;20319;-91
2022/01/01 06:30:36;;;;;;;4.82;3.55;;;11.40;99.90;;;;;;7383109;19;20377;-93
2022/01/01 06:33:14;;;;;;;4.57;3.83;;;11.30;99.90;;;;;;7418244;19;20349;-92
2022/01/01 06:35:43;;;;;;;4.15;3.58;;;11.30;99.90;;;;;;7423461;19;20327;-92
2022/01/01 06:38:09;;;;;;;4.72;3.50;;;11.50;99.90;;;;;;7399881;19;20373;-90
2022/01/01 06:40:36;;;;;;;4.55;3.60;;;11.50;99.90;;;;;;7424296;19;20324;-91
2022/01/01 06:43:02;;;;;;;4.07;3.67;;;11.40;99.90;;;;;;7420421;19;20372;-88
2022/01/01 06:45:27;;;;;;;4.13;3.67;;;11.40;99.90;;;;;;7416953;19;20348;-92
2022/01/01 06:47:53;;;;;;;4.27;3.53;;;11.40;99.90;;;;;;7423032;19;20301;-93
2022/01/01 06:50:19;;;;;;;4.10;3.70;;;11.40;99.90;;;;;;7419149;19;20331;-93
2022/01/01 06:52:54;;;;;;;3.95;3.50;;;11.40;99.90;;;;;;7422551;19;20317;-90
2022/01/01 06:55:19;;;;;;;4.30;3.90;;;11.40;99.90;;;;;;7423997;19;20328;-89
2022/01/01 06:57:48;;;;;;;4.00;3.60;;;11.40;99.90;;;;;;7400325;19;20405;-93
2022/01/01 07:00:17;;;;;;;5.10;3.90;;;11.40;99.90;;;;;;7410513;19;20349;-92
2022/01/01 07:02:45;;;;;;;4.07;3.38;;;11.40;99.90;;;;;;7421653;19;20348;-92
2022/01/01 07:05:21;;;;;;;4.68;3.47;;;11.40;99.90;;;;;;7418023;19;20320;-91
2022/01/01 07:07:46;;;;;;;3.92;3.30;;;11.40;99.90;;;;;;7419768;19;20359;-94
2022/01/01 07:10:13;;;;;;;4.30;3.55;;;11.40;99.90;;;;;;7423778;19;20325;-90
2022/01/01 07:12:39;;;;;;;3.65;3.25;;;11.40;99.90;;;;;;7420414;19;20373;-90
2022/01/01 07:15:08;;;;;;;3.67;3.33;;;11.40;99.90;;;;;;7417766;19;20360;-92
2022/01/01 07:17:37;;;;;;;4.78;3.78;;;11.40;99.90;;;;;;7419990;19;20344;-93
2022/01/01 07:20:04;;;;;;;4.25;3.55;;;11.40;99.90;;;;;;7422665;19;20332;-91
2022/01/01 07:22:38;;;;;;;3.70;3.40;;;11.40;99.90;;;;;;7421820;19;20415;-88
2022/01/01 07:25:04;;;;;;;5.53;3.75;;;11.40;99.90;;;;;;7397309;19;20332;-90
2022/01/01 07:27:31;;;;;;;3.78;3.33;;;11.40;99.90;;;;;;7421290;19;20336;-92
2022/01/01 07:29:57;;;;;;;3.78;3.38;;;11.40;99.90;;;;;;7423564;19;20312;-91
2022/01/01 07:32:24;;;;;;;4.60;3.70;;;11.40;99.90;;;;;;7418642;19;20327;-89
2022/01/01 07:34:50;;;;;;;5.77;3.90;;;11.40;99.90;;;;;;7418225;19;20325;-91
2022/01/01 07:37:17;;;;;;;5.90;3.63;;;11.40;99.90;;;;;;7420861;19;20368;-94
2022/01/01 07:39:42;;;;;;;4.30;3.78;;;11.40;99.90;;;;;;7413916;19;20324;-92
2022/01/01 07:42:08;;;;;;;4.67;3.80;;;11.50;99.90;;;;;;7416311;19;20341;-92
2022/01/01 07:44:34;;;;;;;5.68;4.35;;;11.60;99.90;;;;;;7420257;19;20309;-90
2022/01/01 07:47:01;;;;;;;4.72;3.78;;;11.50;99.90;;;;;;7413987;19;20321;-93
2022/01/01 07:49:26;;;;;;;4.13;3.72;;;11.70;99.90;;;;;;7420442;19;20305;-92
2022/01/01 07:51:52;;;;;;;3.70;3.40;;;11.60;99.90;;;;;;7420772;19;20293;-89
2022/01/01 07:54:18;;;;;;;3.80;3.40;;;11.60;99.90;;;;;;7416512;19;20329;-91
2022/01/01 07:56:44;;;;;;;7.43;3.87;;;11.70;99.90;;;;;;7421576;19;20323;-91
2022/01/01 07:59:09;;;;;;;6.13;3.75;;;11.70;99.90;;;;;;7415697;19;20317;-91
2022/01/01 08:01:36;;;;;;;4.63;3.67;;;11.80;99.90;;;;;;7419421;19;20336;-90
2022/01/01 08:04:03;;;;;;;5.32;3.90;;;11.80;99.90;;;;;;7399211;19;20344;-87
2022/01/01 08:06:30;;;;;;;5.38;4.13;;;11.70;99.90;;;;;;7419254;19;20345;-92
2022/01/01 08:08:56;;;;;;;5.50;4.10;;;11.70;99.90;;;;;;7418274;19;20333;-91
2022/01/01 08:11:24;;;;;;;4.80;3.40;;;11.70;99.90;;;;;;7398192;19;20312;-92
2022/01/01 08:13:52;;;;;;;5.93;4.00;;;11.80;99.90;;;;;;7417605;19;20337;-88
2022/01/01 08:16:18;;;;;;;6.07;4.05;;;11.70;99.90;;;;;;7420652;19;20305;-90
2022/01/01 08:18:44;;;;;;;3.88;3.50;;;11.80;99.90;;;;;;7418166;19;20327;-88
2022/01/01 08:21:09;;;;;;;6.27;4.10;;;11.80;99.90;;;;;;7416566;19;20325;-85
2022/01/01 08:23:38;;;;;;;4.28;3.80;;;11.80;99.90;;;;;;7395504;19;20335;-92
2022/01/01 08:26:04;;;;;;;5.03;3.92;;;11.80;99.90;;;;;;7419088;19;20321;-82
2022/01/01 08:28:30;;;;;;;4.05;3.70;;;11.80;99.90;;;;;;7395591;19;20355;-94
2022/01/01 08:30:57;;;;;;;5.90;4.13;;;11.80;99.90;;;;;;7415295;19;20320;-85
2022/01/01 08:33:22;;;;;;;5.78;3.40;;;11.80;99.90;;;;;;7414018;19;20296;-91
2022/01/01 08:35:48;;;;;;;5.20;4.28;;;11.90;99.90;;;;;;7413781;19;20337;-85
2022/01/01 08:38:14;;;;;;;4.80;3.60;;;11.80;99.90;;;;;;7413358;19;20372;-92
2022/01/01 08:40:40;;;;;;;4.77;3.67;;;11.80;99.90;;;;;;7415237;19;20344;-87
2022/01/01 08:43:06;;;;;;;4.95;3.78;;;11.90;99.90;;;;;;7415088;19;20324;-89
2022/01/01 08:45:33;;;;;;;4.75;4.03;;;11.90;99.90;;;;;;7416479;19;20345;-82
2022/01/01 08:47:59;;;;;;;4.97;4.18;;;11.90;99.90;;;;;;7412635;19;20376;-88
2022/01/01 08:50:26;;;;;;;5.55;3.92;;;12.00;99.90;;;;;;7394813;19;20317;-91
2022/01/01 08:52:57;;;;;;;5.45;4.28;;;11.90;99.90;;;;;;7373977;19;20341;-92
2022/01/01 09:16:49;;;;;;;3.70;3.38;;;12.30;99.90;;;;;;7411129;19;20396;-94
2022/01/01 09:19:16;;;;;;;5.47;4.10;;;12.40;99.90;;;;;;7413735;19;20332;-83
2022/01/01 09:21:43;;;;;;;5.70;4.40;;;12.30;99.90;;;;;;7401315;19;20316;-87
2022/01/01 09:24:12;;;;;;;3.47;3.15;;;12.40;99.90;;;;;;7420241;19;20357;-89
2022/01/01 09:26:39;;;;;;;4.60;3.60;;;12.40;99.90;;;;;;7379254;19;20325;-88
2022/01/01 09:29:10;;;;;;;4.43;3.55;;;12.40;99.90;;;;;;7379887;19;20786;-82
2022/01/01 09:37:34;;;;;;;4.10;3.70;;;12.40;99.90;;;;;;7404151;19;20316;-90
2022/01/01 09:40:02;;;;;;;5.30;3.70;;;12.40;99.90;;;;;;7424033;19;20345;-90
2022/01/01 09:42:29;;;;;;;6.38;3.72;;;12.50;99.90;;;;;;7418047;19;20341;-92
2022/01/01 09:44:54;;;;;;;7.18;4.65;;;12.40;99.90;;;;;;7421260;19;20316;-89
2022/01/01 09:47:20;;;;;;;7.60;6.53;;;12.40;99.90;;;;;;7422436;19;20355;-90
2022/01/01 09:49:46;;;;;;;5.07;4.18;;;12.40;99.90;;;;;;7416437;19;20384;-81
2022/01/01 09:52:14;;;;;;;3.55;3.25;;;12.50;99.90;;;;;;7421446;19;20326;-86
2022/01/01 09:54:41;;;;;;;5.13;3.70;;;12.40;99.90;;;;;;7373849;19;20726;-87
2022/01/01 09:57:07;;;;;;;5.03;3.50;;;12.40;99.90;;;;;;7419083;19;20380;-90
2022/01/01 09:59:34;;;;;;;4.25;3.67;;;12.50;99.90;;;;;;7418937;19;20328;-92
2022/01/01 10:02:02;;;;;;;4.77;3.87;;;12.40;99.90;;;;;;7416149;19;21380;-91
2022/01/01 10:04:28;;;;;;;4.38;3.45;;;12.40;99.90;;;;;;7406452;19;20345;-90
2022/01/01 10:09:47;;;;;;;6.10;3.63;;;12.40;99.90;;;;;;7376023;19;20360;-90
2022/01/01 10:12:22;;;;;;;4.20;3.75;;;12.40;99.90;;;;;;7408010;19;20340;-92
2022/01/01 10:14:53;;;;;;;4.43;3.53;;;12.40;99.90;;;;;;5677928;19;10001099;-92
2022/01/01 10:17:24;;;;;;;5.00;3.72;;;12.40;99.90;;;;;;7403810;19;20308;-90
2022/01/01 10:19:51;;;;;;;4.10;3.37;;;12.40;99.90;;;;;;7422580;19;20360;-89
2022/01/01 10:22:22;;;;;;;5.50;3.55;;;12.50;99.90;;;;;;7403755;19;20332;-91
2022/01/01 10:27:47;;;;;;;3.87;3.40;;;12.40;99.90;;;;;;7316723;19;2004270;-91
2022/01/01 10:30:22;;;;;;;3.97;3.42;;;12.40;99.90;;;;;;7399136;19;20344;-93
2022/01/01 10:33:07;;;;;;;4.63;3.77;;;12.40;99.90;;;;;;7384990;19;20316;-83
2022/01/01 10:38:44;;;;;;;9.07;5.63;;;12.40;99.90;;;;;;7408972;19;20344;-83
2022/01/01 10:41:13;;;;;;;3.85;3.45;;;12.20;99.90;;;;;;7424095;19;20317;-87
2022/01/01 10:44:12;;;;;;;4.78;3.80;;;12.40;99.90;;;;;;7415893;19;22001;-80
2022/01/01 10:47:28;;;;;;;5.47;4.10;;;12.40;99.90;;;;;;7428598;19;20361;-89
2022/01/01 10:50:17;;;;;;;4.57;3.87;;;12.50;99.90;;;;;;7425852;19;20353;-82
2022/01/01 10:52:48;;;;;;;5.22;3.70;;;12.50;99.90;;;;;;7382949;19;20333;-84
2022/01/01 10:59:12;;;;;;;4.05;3.63;;;12.50;99.90;;;;;;7219793;19;2004309;-82
2022/01/01 11:01:45;;;;;;;7.85;3.85;;;12.60;99.90;;;;;;7323749;19;2004386;-87
2022/01/01 11:04:43;;;;;;;3.75;3.35;;;12.60;99.90;;;;;;7427468;19;20336;-84
2022/01/01 11:10:31;;;;;;;4.13;3.30;;;12.60;99.90;;;;;;7272229;19;2004524;-82
2022/01/01 11:12:59;;;;;;;7.82;4.00;;;12.40;99.90;;;;;;7426643;19;20339;-81
2022/01/01 11:16:10;;;;;;;6.40;4.30;;;12.60;99.90;;;;;;7427931;19;20356;-81
2022/01/01 11:19:04;;;;;;;4.35;3.92;;;12.60;99.90;;;;;;7410727;19;21211;-87
2022/01/01 11:21:47;;;;;;;5.53;4.25;;;12.60;99.90;;;;;;7430429;19;20344;-81
2022/01/01 11:24:46;;;;;;;5.68;3.85;;;12.50;99.90;;;;;;7381358;19;20325;-83
2022/01/01 11:27:17;;;;;;;4.05;3.40;;;12.50;99.90;;;;;;7312998;19;2004421;-83
2022/01/01 11:29:53;;;;;;;5.07;3.58;;;12.60;99.90;;;;;;7298520;19;2004332;-84
2022/01/01 11:33:18;;;;;;;4.37;3.67;;;12.50;99.90;;;;;;7413836;19;20357;-85
2022/01/01 11:35:52;;;;;;;6.68;4.40;;;12.50;99.90;;;;;;7320876;19;2004386;-80
2022/01/01 11:38:27;;;;;;;6.78;4.57;;;12.50;99.90;;;;;;7400949;19;20312;-81
2022/01/01 11:41:04;;;;;;;5.15;4.05;;;12.40;99.90;;;;;;7301070;19;2004233;-87
2022/01/01 11:43:33;;;;;;;5.15;4.10;;;12.40;99.90;;;;;;6010063;19;10001266;-83
2022/01/01 11:46:29;;;;;;;4.63;4.15;;;12.50;99.90;;;;;;7349612;19;20404;-81
2022/01/01 11:49:01;;;;;;;7.33;4.43;;;12.40;99.90;;;;;;7319700;19;2004369;-86
2022/01/01 11:54:30;;;;;;;5.03;4.22;;;12.50;99.90;;;;;;7399429;19;20293;-89
2022/01/01 11:57:05;;;;;;;7.53;4.47;;;12.50;99.90;;;;;;7420469;19;20386;-85
2022/01/01 11:59:40;;;;;;;7.28;4.85;;;12.40;99.90;;;;;;7379171;19;20339;-82
2022/01/01 12:02:22;;;;;;;5.18;4.00;;;12.50;99.90;;;;;;7421145;19;20344;-85
2022/01/01 12:04:50;;;;;;;5.30;4.30;;;12.50;99.90;;;;;;7415736;19;20344;-88
2022/01/01 12:07:16;;;;;;;7.05;4.50;;;12.50;99.90;;;;;;7413633;19;20327;-89
2022/01/01 12:10:03;;;;;;;6.13;5.20;;;12.50;99.90;;;;;;7418270;19;20316;-89
2022/01/01 12:12:51;;;;;;;5.85;4.07;;;12.50;99.90;;;;;;7315327;19;2004265;-91
2022/01/01 12:15:24;;;;;;;4.47;4.03;;;12.50;99.90;;;;;;7392410;19;20332;-88
2022/01/01 12:18:10;;;;;;;4.63;3.95;;;12.50;99.90;;;;;;7407374;19;20360;-88
2022/01/01 12:20:50;;;;;;;8.00;4.28;;;12.50;99.90;;;;;;7374068;19;20356;-87
2022/01/01 12:23:23;;;;;;;4.30;3.90;;;12.50;99.90;;;;;;7411554;19;20325;-91
2022/01/01 12:25:51;;;;;;;5.32;4.05;;;12.60;99.90;;;;;;7416024;19;20836;-89
2022/01/01 12:28:21;;;;;;;5.40;4.07;;;12.50;99.90;;;;;;7408901;19;20396;-86
2022/01/01 12:30:51;;;;;;;4.50;3.97;;;12.50;99.90;;;;;;7417185;19;20415;-90
2022/01/01 12:33:27;;;;;;;10.05;7.85;;;12.40;99.90;;;;;;7416159;19;20332;-81
2022/01/01 12:35:56;;;;;;;8.32;5.45;;;12.50;99.90;;;;;;7414659;19;20352;-89
2022/01/01 12:38:28;;;;;;;5.30;4.68;;;12.50;99.90;;;;;;7417462;19;20356;-88
2022/01/01 12:41:05;;;;;;;6.13;4.82;;;12.40;99.90;;;;;;7419512;19;20352;-89
2022/01/01 12:43:42;;;;;;;4.47;4.05;;;12.50;99.90;;;;;;7399877;19;20344;-90
2022/01/01 12:46:10;;;;;;;5.20;4.15;;;12.60;99.90;;;;;;7399718;19;20300;-90
2022/01/01 12:48:37;;;;;;;5.70;4.38;;;12.70;99.90;;;;;;7425149;19;20324;-87
2022/01/01 12:51:08;;;;;;;6.32;4.72;;;12.70;99.90;;;;;;7398463;19;20348;-89
2022/01/01 12:53:37;;;;;;;5.07;4.57;;;12.60;99.90;;;;;;7422531;19;20380;-89
2022/01/01 12:56:06;;;;;;;5.70;4.18;;;12.60;99.90;;;;;;7425148;19;20311;-88
2022/01/01 12:58:45;;;;;;;5.95;4.60;;;12.60;99.90;;;;;;7429312;19;20305;-84
2022/01/01 13:01:16;;;;;;;5.55;4.50;;;12.50;99.90;;;;;;7431878;19;20350;-88
2022/01/01 13:03:44;;;;;;;5.53;4.65;;;12.50;99.90;;;;;;7426237;19;20352;-81
2022/01/01 13:06:10;;;;;;;8.02;5.25;;;12.50;99.90;;;;;;7429954;19;20317;-90
2022/01/01 13:08:47;;;;;;;7.13;4.47;;;12.40;99.90;;;;;;7396207;19;20353;-87
2022/01/01 13:11:16;;;;;;;5.85;4.38;;;12.30;99.90;;;;;;7323429;19;2004427;-80
2022/01/01 13:13:49;;;;;;;6.07;4.20;;;12.40;99.90;;;;;;7420809;19;20866;-86
2022/01/01 13:16:14;;;;;;;7.18;4.25;;;12.30;99.90;;;;;;7424774;19;20340;-88
2022/01/01 13:18:41;;;;;;;4.90;4.40;;;12.30;99.90;;;;;;7420478;19;20349;-86
2022/01/01 13:21:07;;;;;;;5.93;4.43;;;12.40;99.90;;;;;;7422289;19;20307;-85
2022/01/01 13:23:33;;;;;;;5.30;4.80;;;12.30;99.90;;;;;;7419911;19;20341;-86
2022/01/01 13:25:58;;;;;;;7.75;5.07;;;12.30;99.90;;;;;;7422686;19;20340;-84
2022/01/01 13:28:31;;;;;;;5.10;4.60;;;12.30;99.90;;;;;;7422879;19;20348;-82
2022/01/01 13:30:58;;;;;;;6.65;5.10;;;12.30;99.90;;;;;;7420001;19;20356;-83
2022/01/01 13:33:25;;;;;;;5.68;4.47;;;12.30;99.90;;;;;;7428391;19;20345;-90
2022/01/01 13:35:57;;;;;;;5.82;4.70;;;12.30;99.90;;;;;;7428308;19;20313;-91
2022/01/01 13:38:25;;;;;;;7.88;4.72;;;12.20;99.90;;;;;;7426437;19;20324;-90
2022/01/01 13:40:54;;;;;;;5.50;4.63;;;12.20;99.90;;;;;;7424385;19;20335;-91
2022/01/01 13:43:26;;;;;;;7.35;5.05;;;12.20;99.90;;;;;;7427698;19;20329;-91
2022/01/01 13:48:39;;;;;;;5.43;4.60;;;12.10;99.90;;;;;;7425458;19;20325;-88
2022/01/01 13:51:08;;;;;;;4.85;4.40;;;12.10;99.90;;;;;;7324149;19;2004313;-91
2022/01/01 13:53:34;;;;;;;5.17;4.33;;;12.20;99.90;;;;;;7421579;19;20494;-87
2022/01/01 13:56:29;;;;;;;6.03;4.43;;;12.10;99.90;;;;;;7427763;19;21279;-91
2022/01/01 13:58:59;;;;;;;6.55;4.70;;;12.10;99.90;;;;;;7323426;19;2006201;-92
2022/01/01 14:01:33;;;;;;;7.53;4.90;;;12.20;99.90;;;;;;7397165;19;20419;-91
2022/01/01 14:04:15;;;;;;;6.93;5.28;;;12.10;99.90;;;;;;7377851;19;20317;-91
2022/01/01 14:07:01;;;;;;;7.13;5.57;;;12.00;99.90;;;;;;7392045;19;20420;-92
2022/01/01 14:09:32;;;;;;;13.07;8.35;;;12.10;99.90;;;;;;7299358;19;2004189;-87
2022/01/01 14:12:03;;;;;;;9.07;6.47;;;12.00;99.90;;;;;;7421898;19;20312;-88
2022/01/01 14:14:31;;;;;;;4.90;4.40;;;12.10;99.90;;;;;;7418484;19;20375;-90
2022/01/01 14:17:02;;;;;;;6.72;4.68;;;12.00;99.90;;;;;;7418785;19;20305;-91
2022/01/01 14:19:33;;;;;;;6.53;4.85;;;12.00;99.90;;;;;;7423989;19;20345;-92
2022/01/01 14:22:11;;;;;;;5.17;4.67;;;12.00;99.90;;;;;;7293440;19;2004365;-92
2022/01/01 14:24:55;;;;;;;6.00;4.85;;;12.00;99.90;;;;;;7393626;19;20317;-88
2022/01/01 14:27:21;;;;;;;5.45;4.80;;;11.90;99.90;;;;;;7315343;19;2004485;-84
2022/01/01 14:29:51;;;;;;;7.35;5.63;;;11.90;99.90;;;;;;7416576;19;20357;-92
2022/01/01 14:32:19;;;;;;;9.50;5.22;;;11.90;99.90;;;;;;7397638;19;20329;-90
2022/01/01 14:34:47;;;;;;;5.20;4.70;;;12.00;99.90;;;;;;7374927;19;20349;-91
2022/01/01 14:37:14;;;;;;;5.68;4.25;;;11.90;99.90;;;;;;7423066;19;20333;-90
2022/01/01 14:39:45;;;;;;;4.45;4.05;;;11.90;99.90;;;;;;7398312;19;20425;-86
2022/01/01 14:42:13;;;;;;;6.27;4.50;;;11.90;99.90;;;;;;7396672;19;20361;-89
2022/01/01 16:43:20;;;;;;;4.03;3.72;;;11.60;99.90;;;;;;7413534;19;20303;-88
2022/01/01 16:46:03;;;;;;;3.78;3.47;;;11.60;99.90;;;;;;7392383;19;20352;-83
2022/01/01 16:49:08;;;;;;;2.63;2.43;;;11.60;99.90;;;;;;7407727;19;20312;-86
2022/01/01 17:12:44;;;;;;;2.80;2.57;;;11.40;99.90;;;;;;7367160;19;20283;-91
2022/01/01 17:15:12;;;;;;;7.30;6.55;;;11.50;99.90;;;;;;7361841;19;20319;-91
2022/01/01 17:18:08;;;;;;;4.72;4.22;;;11.40;99.90;;;;;;7299749;19;2004507;-91
2022/01/01 17:20:42;;;;;;;3.67;3.38;;;11.40;99.90;;;;;;7423418;19;20333;-91
2022/01/01 17:24:00;;;;;;;2.70;2.50;;;11.50;99.90;;;;;;7325193;19;2004057;-88
2022/01/01 20:23:21;;;;;;;2.95;2.28;;;11.00;99.90;;;;;;7327411;19;20412;-90
2022/01/01 20:25:48;;;;;;;2.60;2.40;;;10.90;99.90;;;;;;7418109;19;20321;-90
2022/01/01 20:28:17;;;;;;;2.83;2.40;;;11.00;99.90;;;;;;7375280;19;20305;-90
2022/01/01 20:30:53;;;;;;;3.33;3.03;;;11.00;99.90;;;;;;7404117;19;20325;-89
2022/01/01 20:33:29;;;;;;;3.33;3.03;;;11.00;99.90;;;;;;7371330;19;20361;-86
2022/01/01 20:36:13;;;;;;;2.80;2.60;;;10.90;99.90;;;;;;7374060;19;20331;-90
2022/01/01 20:38:40;;;;;;;5.03;2.77;;;10.90;99.90;;;;;;7333465;19;20336;-86
2022/01/01 20:41:27;;;;;;;3.38;2.67;;;10.90;99.90;;;;;;7414856;19;20389;-85
2022/01/01 23:07:24;;;;;;;2.45;2.25;;;10.70;99.90;;;;;;7373157;19;20336;-91
2022/01/01 23:10:05;;;;;;;2.57;2.37;;;10.70;99.90;;;;;;7357129;19;20371;-87
2022/01/01 23:12:35;;;;;;;3.45;2.75;;;10.70;99.90;;;;;;7348242;19;20376;-91
2022/01/01 23:15:10;;;;;;;2.63;2.40;;;10.60;99.90;;;;;;7408996;19;20313;-92
2022/01/01 23:21:06;;;;;;;3.08;2.78;;;10.50;99.90;;;;;;7249663;19;2004258;-91
2022/01/01 23:23:42;;;;;;;3.83;2.90;;;10.60;99.90;;;;;;7398198;19;20364;-93
2022/01/01 23:26:13;;;;;;;2.92;2.33;;;10.50;99.90;;;;;;7376759;19;20350;-92
2022/01/01 23:28:54;;;;;;;2.90;2.45;;;10.40;99.90;;;;;;7377963;19;20376;-92
2022/01/01 23:43:08;;;;;;;2.40;2.15;;;10.20;99.90;;;;;;7396915;19;20355;-92
2022/01/01 23:45:48;;;;;;;2.60;2.40;;;10.10;99.90;;;;;;7391909;19;20344;-92
2022/01/01 23:48:18;;;;;;;2.40;2.20;;;10.00;99.90;;;;;;7395807;19;20376;-92
2022/01/01 23:51:03;;;;;;;2.97;2.30;;;10.00;99.90;;;;;;7412773;19;20357;-89
2022/01/01 23:59:59;;;;;;;3.70;2.35;;;9.80;99.90;;;;;;7343463;19;20357;-93
